sensor_id;sensor_type;location;lat;lon;timestamp;temperature;humidity
72288;SHT31;60221;45.696;16.076;2022-10-16T00:01:29;13.68;72.76
72288;SHT31;60221;45.696;16.076;2022-10-16T00:03:57;13.64;72.54
72288;SHT31;60221;45.696;16.076;2022-10-16T00:06:26;13.54;72.34
72288;SHT31;60221;45.696;16.076;2022-10-16T00:08:53;13.45;72.45
72288;SHT31;60221;45.696;16.076;2022-10-16T00:11:24;13.37;72.62
72288;SHT31;60221;45.696;16.076;2022-10-16T00:13:57;13.38;72.88
72288;SHT31;60221;45.696;16.076;2022-10-16T00:16:25;13.35;73.05
72288;SHT31;60221;45.696;16.076;2022-10-16T00:18:51;13.34;73.23
72288;SHT31;60221;45.696;16.076;2022-10-16T00:21:25;13.25;73.14
72288;SHT31;60221;45.696;16.076;2022-10-16T00:23:56;13.23;73.34
72288;SHT31;60221;45.696;16.076;2022-10-16T00:26:23;13.24;73.41
72288;SHT31;60221;45.696;16.076;2022-10-16T00:28:51;13.20;73.39
72288;SHT31;60221;45.696;16.076;2022-10-16T00:31:20;13.13;73.42
72288;SHT31;60221;45.696;16.076;2022-10-16T00:33:48;13.04;73.46
72288;SHT31;60221;45.696;16.076;2022-10-16T00:36:18;13.03;73.74
72288;SHT31;60221;45.696;16.076;2022-10-16T00:38:45;13.03;73.87
72288;SHT31;60221;45.696;16.076;2022-10-16T00:41:15;13.02;73.79
72288;SHT31;60221;45.696;16.076;2022-10-16T00:44:02;12.99;73.86
72288;SHT31;60221;45.696;16.076;2022-10-16T00:46:41;12.92;73.88
72288;SHT31;60221;45.696;16.076;2022-10-16T00:49:15;12.86;73.81
72288;SHT31;60221;45.696;16.076;2022-10-16T00:51:53;12.82;74.12
72288;SHT31;60221;45.696;16.076;2022-10-16T00:54:27;12.82;74.17
72288;SHT31;60221;45.696;16.076;2022-10-16T00:56:57;13.06;76.06
72288;SHT31;60221;45.696;16.076;2022-10-16T00:59:37;13.58;76.62
72288;SHT31;60221;45.696;16.076;2022-10-16T01:02:07;13.62;74.59
72288;SHT31;60221;45.696;16.076;2022-10-16T01:04:42;13.62;74.08
72288;SHT31;60221;45.696;16.076;2022-10-16T01:07:36;13.85;74.95
72288;SHT31;60221;45.696;16.076;2022-10-16T01:13:18;14.24;73.31
72288;SHT31;60221;45.696;16.076;2022-10-16T01:15:51;14.41;72.08
72288;SHT31;60221;45.696;16.076;2022-10-16T01:21:08;14.62;70.37
72288;SHT31;60221;45.696;16.076;2022-10-16T01:27:12;14.68;69.45
72288;SHT31;60221;45.696;16.076;2022-10-16T01:29:56;14.58;69.06
72288;SHT31;60221;45.696;16.076;2022-10-16T01:32:52;14.68;69.29
72288;SHT31;60221;45.696;16.076;2022-10-16T01:35:38;15.40;72.06
72288;SHT31;60221;45.696;16.076;2022-10-16T01:38:16;16.50;68.40
72288;SHT31;60221;45.696;16.076;2022-10-16T01:40:48;17.09;65.00
72288;SHT31;60221;45.696;16.076;2022-10-16T01:43:25;17.23;62.81
72288;SHT31;60221;45.696;16.076;2022-10-16T01:45:50;17.40;61.08
72288;SHT31;60221;45.696;16.076;2022-10-16T01:48:19;17.60;61.14
72288;SHT31;60221;45.696;16.076;2022-10-16T01:51:05;17.82;59.27
72288;SHT31;60221;45.696;16.076;2022-10-16T01:53:25;17.35;57.29
72288;SHT31;60221;45.696;16.076;2022-10-16T01:55:55;16.51;57.95
72288;SHT31;60221;45.696;16.076;2022-10-16T01:58:25;15.82;58.74
72288;SHT31;60221;45.696;16.076;2022-10-16T02:00:55;15.29;59.82
72288;SHT31;60221;45.696;16.076;2022-10-16T02:03:22;14.86;60.94
72288;SHT31;60221;45.696;16.076;2022-10-16T02:05:55;14.51;62.14
72288;SHT31;60221;45.696;16.076;2022-10-16T02:08:26;15.23;68.31
72288;SHT31;60221;45.696;16.076;2022-10-16T02:10:57;16.64;65.49
72288;SHT31;60221;45.696;16.076;2022-10-16T02:13:35;17.49;60.80
72288;SHT31;60221;45.696;16.076;2022-10-16T02:16:01;17.82;58.74
72288;SHT31;60221;45.696;16.076;2022-10-16T02:18:28;17.44;56.53
72288;SHT31;60221;45.696;16.076;2022-10-16T02:21:09;16.54;56.95
72288;SHT31;60221;45.696;16.076;2022-10-16T02:26:29;15.22;60.13
72288;SHT31;60221;45.696;16.076;2022-10-16T02:29:00;14.79;60.82
72288;SHT31;60221;45.696;16.076;2022-10-16T02:31:31;14.47;62.03
72288;SHT31;60221;45.696;16.076;2022-10-16T02:34:01;15.03;68.82
72288;SHT31;60221;45.696;16.076;2022-10-16T02:36:32;16.71;66.59
72288;SHT31;60221;45.696;16.076;2022-10-16T02:39:00;17.70;61.99
72288;SHT31;60221;45.696;16.076;2022-10-16T02:41:27;18.27;58.68
72288;SHT31;60221;45.696;16.076;2022-10-16T02:43:53;17.85;55.86
72288;SHT31;60221;45.696;16.076;2022-10-16T02:46:21;16.82;56.56
72288;SHT31;60221;45.696;16.076;2022-10-16T02:48:48;16.06;58.20
72288;SHT31;60221;45.696;16.076;2022-10-16T02:51:14;15.54;59.46
72288;SHT31;60221;45.696;16.076;2022-10-16T02:53:40;15.06;61.47
72288;SHT31;60221;45.696;16.076;2022-10-16T02:56:07;14.61;62.09
72288;SHT31;60221;45.696;16.076;2022-10-16T02:58:33;15.40;69.40
72288;SHT31;60221;45.696;16.076;2022-10-16T03:01:00;16.61;64.82
72288;SHT31;60221;45.696;16.076;2022-10-16T03:03:26;17.04;63.53
72288;SHT31;60221;45.696;16.076;2022-10-16T03:05:52;17.66;62.02
72288;SHT31;60221;45.696;16.076;2022-10-16T03:08:18;18.12;60.43
72288;SHT31;60221;45.696;16.076;2022-10-16T03:10:46;18.32;59.25
72288;SHT31;60221;45.696;16.076;2022-10-16T03:13:12;17.88;56.71
72288;SHT31;60221;45.696;16.076;2022-10-16T03:15:38;17.02;57.04
72288;SHT31;60221;45.696;16.076;2022-10-16T03:18:04;16.26;58.59
72288;SHT31;60221;45.696;16.076;2022-10-16T03:20:30;15.77;59.66
72288;SHT31;60221;45.696;16.076;2022-10-16T03:22:56;15.33;60.62
72288;SHT31;60221;45.696;16.076;2022-10-16T03:25:23;14.96;61.69
72288;SHT31;60221;45.696;16.076;2022-10-16T03:27:49;15.77;69.30
72288;SHT31;60221;45.696;16.076;2022-10-16T03:30:15;17.35;66.22
72288;SHT31;60221;45.696;16.076;2022-10-16T03:32:44;18.15;61.74
72288;SHT31;60221;45.696;16.076;2022-10-16T03:35:12;18.40;59.14
72288;SHT31;60221;45.696;16.076;2022-10-16T03:37:38;17.94;57.07
72288;SHT31;60221;45.696;16.076;2022-10-16T03:40:06;17.06;57.91
72288;SHT31;60221;45.696;16.076;2022-10-16T03:42:32;16.37;59.25
72288;SHT31;60221;45.696;16.076;2022-10-16T03:44:58;15.86;60.35
72288;SHT31;60221;45.696;16.076;2022-10-16T03:47:24;15.47;61.54
72288;SHT31;60221;45.696;16.076;2022-10-16T03:49:51;15.13;62.53
72288;SHT31;60221;45.696;16.076;2022-10-16T03:52:17;15.84;69.31
72288;SHT31;60221;45.696;16.076;2022-10-16T03:54:43;17.23;66.09
72288;SHT31;60221;45.696;16.076;2022-10-16T03:57:09;17.92;62.93
72288;SHT31;60221;45.696;16.076;2022-10-16T03:59:35;18.42;60.83
72288;SHT31;60221;45.696;16.076;2022-10-16T04:02:01;18.63;58.89
72288;SHT31;60221;45.696;16.076;2022-10-16T04:04:28;18.09;56.71
72288;SHT31;60221;45.696;16.076;2022-10-16T04:06:54;17.25;57.79
72288;SHT31;60221;45.696;16.076;2022-10-16T04:09:20;16.54;59.09
72288;SHT31;60221;45.696;16.076;2022-10-16T04:11:46;16.03;60.12
72288;SHT31;60221;45.696;16.076;2022-10-16T04:14:12;15.60;61.39
72288;SHT31;60221;45.696;16.076;2022-10-16T04:16:38;15.26;61.67
72288;SHT31;60221;45.696;16.076;2022-10-16T04:19:04;15.88;68.68
72288;SHT31;60221;45.696;16.076;2022-10-16T04:21:30;17.39;64.75
72288;SHT31;60221;45.696;16.076;2022-10-16T04:23:56;18.24;60.88
72288;SHT31;60221;45.696;16.076;2022-10-16T04:26:22;18.60;58.48
72288;SHT31;60221;45.696;16.076;2022-10-16T04:28:48;18.09;55.42
72288;SHT31;60221;45.696;16.076;2022-10-16T04:31:14;17.12;56.04
72288;SHT31;60221;45.696;16.076;2022-10-16T04:33:43;16.41;57.80
72288;SHT31;60221;45.696;16.076;2022-10-16T04:36:09;15.88;58.81
72288;SHT31;60221;45.696;16.076;2022-10-16T04:38:36;15.44;59.95
72288;SHT31;60221;45.696;16.076;2022-10-16T04:41:04;15.09;60.68
72288;SHT31;60221;45.696;16.076;2022-10-16T04:43:30;14.71;62.08
72288;SHT31;60221;45.696;16.076;2022-10-16T04:45:56;15.09;66.77
72288;SHT31;60221;45.696;16.076;2022-10-16T04:48:22;16.22;66.75
72288;SHT31;60221;45.696;16.076;2022-10-16T04:50:48;17.08;63.03
72288;SHT31;60221;45.696;16.076;2022-10-16T04:53:15;17.90;61.38
72288;SHT31;60221;45.696;16.076;2022-10-16T04:55:43;18.53;58.50
72288;SHT31;60221;45.696;16.076;2022-10-16T04:58:10;18.08;55.80
72288;SHT31;60221;45.696;16.076;2022-10-16T05:00:36;17.11;56.72
72288;SHT31;60221;45.696;16.076;2022-10-16T05:03:02;16.36;58.03
72288;SHT31;60221;45.696;16.076;2022-10-16T05:05:30;15.77;59.00
72288;SHT31;60221;45.696;16.076;2022-10-16T05:07:56;15.33;60.67
72288;SHT31;60221;45.696;16.076;2022-10-16T05:10:22;14.96;62.35
72288;SHT31;60221;45.696;16.076;2022-10-16T05:12:48;15.74;68.86
72288;SHT31;60221;45.696;16.076;2022-10-16T05:15:14;17.26;65.46
72288;SHT31;60221;45.696;16.076;2022-10-16T05:17:40;18.05;61.03
72288;SHT31;60221;45.696;16.076;2022-10-16T05:20:07;18.32;59.70
72288;SHT31;60221;45.696;16.076;2022-10-16T05:22:33;18.05;56.53
72288;SHT31;60221;45.696;16.076;2022-10-16T05:24:59;17.12;57.08
72288;SHT31;60221;45.696;16.076;2022-10-16T05:27:26;16.41;58.69
72288;SHT31;60221;45.696;16.076;2022-10-16T05:29:52;15.88;59.62
72288;SHT31;60221;45.696;16.076;2022-10-16T05:32:18;15.47;61.62
72288;SHT31;60221;45.696;16.076;2022-10-16T05:34:46;16.08;67.21
72288;SHT31;60221;45.696;16.076;2022-10-16T05:37:12;17.39;64.82
72288;SHT31;60221;45.696;16.076;2022-10-16T05:39:39;18.04;61.48
72288;SHT31;60221;45.696;16.076;2022-10-16T05:42:05;18.31;60.19
72288;SHT31;60221;45.696;16.076;2022-10-16T05:44:32;18.64;58.58
72288;SHT31;60221;45.696;16.076;2022-10-16T05:46:59;18.36;55.69
72288;SHT31;60221;45.696;16.076;2022-10-16T05:49:25;17.46;56.68
72288;SHT31;60221;45.696;16.076;2022-10-16T05:51:51;16.75;57.84
72288;SHT31;60221;45.696;16.076;2022-10-16T05:54:17;16.22;58.92
72288;SHT31;60221;45.696;16.076;2022-10-16T05:56:43;15.77;60.23
72288;SHT31;60221;45.696;16.076;2022-10-16T05:59:09;15.43;61.39
72288;SHT31;60221;45.696;16.076;2022-10-16T06:01:35;15.75;66.67
72288;SHT31;60221;45.696;16.076;2022-10-16T06:04:02;16.70;65.45
72288;SHT31;60221;45.696;16.076;2022-10-16T06:06:29;17.36;63.76
72288;SHT31;60221;45.696;16.076;2022-10-16T06:08:57;17.71;61.87
72288;SHT31;60221;45.696;16.076;2022-10-16T06:11:28;17.92;60.42
72288;SHT31;60221;45.696;16.076;2022-10-16T06:13:57;18.20;60.40
72288;SHT31;60221;45.696;16.076;2022-10-16T06:16:25;18.18;57.95
72288;SHT31;60221;45.696;16.076;2022-10-16T06:18:53;17.49;57.62
72288;SHT31;60221;45.696;16.076;2022-10-16T06:21:24;16.81;58.61
72288;SHT31;60221;45.696;16.076;2022-10-16T06:23:52;16.33;59.78
72288;SHT31;60221;45.696;16.076;2022-10-16T06:26:23;15.98;60.19
72288;SHT31;60221;45.696;16.076;2022-10-16T06:28:50;15.67;61.20
72288;SHT31;60221;45.696;16.076;2022-10-16T06:31:17;16.06;66.49
72288;SHT31;60221;45.696;16.076;2022-10-16T06:33:44;17.37;65.72
72288;SHT31;60221;45.696;16.076;2022-10-16T06:36:15;18.40;63.42
72288;SHT31;60221;45.696;16.076;2022-10-16T06:38:43;19.01;59.34
72288;SHT31;60221;45.696;16.076;2022-10-16T06:41:14;18.76;55.78
72288;SHT31;60221;45.696;16.076;2022-10-16T06:43:41;17.92;56.29
72288;SHT31;60221;45.696;16.076;2022-10-16T06:46:11;17.23;57.39
72288;SHT31;60221;45.696;16.076;2022-10-16T06:48:37;16.71;58.48
72288;SHT31;60221;45.696;16.076;2022-10-16T06:51:14;16.32;59.76
72288;SHT31;60221;45.696;16.076;2022-10-16T06:53:44;15.92;61.62
72288;SHT31;60221;45.696;16.076;2022-10-16T06:56:17;16.22;65.07
72288;SHT31;60221;45.696;16.076;2022-10-16T06:58:45;17.35;64.44
72288;SHT31;60221;45.696;16.076;2022-10-16T07:01:14;17.84;61.94
72288;SHT31;60221;45.696;16.076;2022-10-16T07:03:42;18.60;61.07
72288;SHT31;60221;45.696;16.076;2022-10-16T07:06:12;19.04;58.97
72288;SHT31;60221;45.696;16.076;2022-10-16T07:08:42;18.60;56.66
72288;SHT31;60221;45.696;16.076;2022-10-16T07:11:12;17.84;57.36
72288;SHT31;60221;45.696;16.076;2022-10-16T07:13:41;17.26;58.55
72288;SHT31;60221;45.696;16.076;2022-10-16T07:16:15;16.89;60.94
72288;SHT31;60221;45.696;16.076;2022-10-16T07:18:43;16.60;61.12
72288;SHT31;60221;45.696;16.076;2022-10-16T07:21:20;16.37;61.53
72288;SHT31;60221;45.696;16.076;2022-10-16T07:23:56;17.14;67.16
72288;SHT31;60221;45.696;16.076;2022-10-16T07:26:24;18.76;65.44
72288;SHT31;60221;45.696;16.076;2022-10-16T07:28:51;19.77;60.39
72288;SHT31;60221;45.696;16.076;2022-10-16T07:31:20;20.27;56.86
72288;SHT31;60221;45.696;16.076;2022-10-16T07:33:48;19.84;54.25
72288;SHT31;60221;45.696;16.076;2022-10-16T07:36:17;18.97;55.72
72288;SHT31;60221;45.696;16.076;2022-10-16T07:38:44;18.36;57.48
72288;SHT31;60221;45.696;16.076;2022-10-16T07:41:14;17.91;60.60
72288;SHT31;60221;45.696;16.076;2022-10-16T07:43:48;17.59;58.90
72288;SHT31;60221;45.696;16.076;2022-10-16T07:46:16;17.30;59.45
72288;SHT31;60221;45.696;16.076;2022-10-16T07:48:43;17.15;61.78
72288;SHT31;60221;45.696;16.076;2022-10-16T07:51:12;17.60;65.04
72288;SHT31;60221;45.696;16.076;2022-10-16T07:53:38;18.77;64.65
72288;SHT31;60221;45.696;16.076;2022-10-16T07:56:06;19.26;60.87
72288;SHT31;60221;45.696;16.076;2022-10-16T07:58:35;19.04;59.11
72288;SHT31;60221;45.696;16.076;2022-10-16T08:01:08;18.52;59.25
72288;SHT31;60221;45.696;16.076;2022-10-16T08:03:35;18.11;61.63
72288;SHT31;60221;45.696;16.076;2022-10-16T08:06:05;17.80;60.78
72288;SHT31;60221;45.696;16.076;2022-10-16T08:08:33;17.62;62.47
72288;SHT31;60221;45.696;16.076;2022-10-16T08:10:59;17.87;63.76
72288;SHT31;60221;45.696;16.076;2022-10-16T08:13:26;18.29;63.40
72288;SHT31;60221;45.696;16.076;2022-10-16T08:15:54;18.67;63.92
72288;SHT31;60221;45.696;16.076;2022-10-16T08:18:21;20.04;63.55
72288;SHT31;60221;45.696;16.076;2022-10-16T08:20:47;20.82;58.27
72288;SHT31;60221;45.696;16.076;2022-10-16T08:23:13;20.51;55.79
72288;SHT31;60221;45.696;16.076;2022-10-16T08:25:41;19.69;55.86
72288;SHT31;60221;45.696;16.076;2022-10-16T08:28:10;19.07;57.30
72288;SHT31;60221;45.696;16.076;2022-10-16T08:30:39;18.66;57.60
72288;SHT31;60221;45.696;16.076;2022-10-16T08:33:06;18.33;59.17
72288;SHT31;60221;45.696;16.076;2022-10-16T08:35:32;18.12;61.07
72288;SHT31;60221;45.696;16.076;2022-10-16T08:37:59;17.95;61.83
72288;SHT31;60221;45.696;16.076;2022-10-16T08:40:29;17.80;61.89
72288;SHT31;60221;45.696;16.076;2022-10-16T08:43:25;18.04;64.33
72288;SHT31;60221;45.696;16.076;2022-10-16T08:46:28;18.38;64.08
72288;SHT31;60221;45.696;16.076;2022-10-16T08:48:50;18.49;63.49
72288;SHT31;60221;45.696;16.076;2022-10-16T08:51:24;18.53;64.52
72288;SHT31;60221;45.696;16.076;2022-10-16T08:53:58;18.42;64.03
72288;SHT31;60221;45.696;16.076;2022-10-16T08:56:26;18.43;63.89
72288;SHT31;60221;45.696;16.076;2022-10-16T08:58:53;18.55;62.78
72288;SHT31;60221;45.696;16.076;2022-10-16T09:01:22;18.95;63.72
72288;SHT31;60221;45.696;16.076;2022-10-16T09:04:23;19.18;62.79
72288;SHT31;60221;45.696;16.076;2022-10-16T09:09:53;19.48;61.02
72288;SHT31;60221;45.696;16.076;2022-10-16T09:12:36;19.59;60.91
72288;SHT31;60221;45.696;16.076;2022-10-16T09:18:13;21.14;60.05
72288;SHT31;60221;45.696;16.076;2022-10-16T09:21:09;21.37;57.26
72288;SHT31;60221;45.696;16.076;2022-10-16T09:23:37;20.80;58.22
72288;SHT31;60221;45.696;16.076;2022-10-16T09:26:09;20.31;57.17
72288;SHT31;60221;45.696;16.076;2022-10-16T09:28:35;19.94;57.60
72288;SHT31;60221;45.696;16.076;2022-10-16T09:31:01;19.70;59.98
72288;SHT31;60221;45.696;16.076;2022-10-16T09:33:37;19.33;60.83
72288;SHT31;60221;45.696;16.076;2022-10-16T09:36:05;19.03;61.01
72288;SHT31;60221;45.696;16.076;2022-10-16T09:38:35;18.77;61.01
72288;SHT31;60221;45.696;16.076;2022-10-16T09:41:16;18.62;61.78
72288;SHT31;60221;45.696;16.076;2022-10-16T09:43:56;18.47;62.08
72288;SHT31;60221;45.696;16.076;2022-10-16T09:46:30;18.78;64.27
72288;SHT31;60221;45.696;16.076;2022-10-16T09:49:01;19.29;64.36
72288;SHT31;60221;45.696;16.076;2022-10-16T09:51:36;19.59;63.03
72288;SHT31;60221;45.696;16.076;2022-10-16T09:56:38;19.79;61.82
72288;SHT31;60221;45.696;16.076;2022-10-16T09:59:21;19.91;61.68
72288;SHT31;60221;45.696;16.076;2022-10-16T10:01:52;19.88;61.05
72288;SHT31;60221;45.696;16.076;2022-10-16T10:04:21;19.84;61.12
72288;SHT31;60221;45.696;16.076;2022-10-16T10:09:27;19.73;61.61
72288;SHT31;60221;45.696;16.076;2022-10-16T10:12:01;19.84;62.32
72288;SHT31;60221;45.696;16.076;2022-10-16T10:14:42;20.06;62.17
72288;SHT31;60221;45.696;16.076;2022-10-16T10:17:17;20.11;61.22
72288;SHT31;60221;45.696;16.076;2022-10-16T10:22:44;20.32;62.78
72288;SHT31;60221;45.696;16.076;2022-10-16T10:25:23;21.11;61.66
72288;SHT31;60221;45.696;16.076;2022-10-16T10:28:23;21.54;58.97
72288;SHT31;60221;45.696;16.076;2022-10-16T10:33:41;20.63;57.67
72288;SHT31;60221;45.696;16.076;2022-10-16T10:39:20;19.86;60.01
72288;SHT31;60221;45.696;16.076;2022-10-16T10:45:02;19.32;61.20
72288;SHT31;60221;45.696;16.076;2022-10-16T10:50:30;19.77;65.60
72288;SHT31;60221;45.696;16.076;2022-10-16T10:55:52;20.94;60.28
72288;SHT31;60221;45.696;16.076;2022-10-16T11:01:46;20.96;60.41
72288;SHT31;60221;45.696;16.076;2022-10-16T11:07:03;21.00;60.14
72288;SHT31;60221;45.696;16.076;2022-10-16T11:09:41;20.97;60.31
72288;SHT31;60221;45.696;16.076;2022-10-16T11:12:26;21.00;60.33
72288;SHT31;60221;45.696;16.076;2022-10-16T11:15:10;21.07;61.12
72288;SHT31;60221;45.696;16.076;2022-10-16T11:17:42;21.42;60.34
72288;SHT31;60221;45.696;16.076;2022-10-16T11:20:37;21.62;59.91
72288;SHT31;60221;45.696;16.076;2022-10-16T11:25:32;21.54;58.45
72288;SHT31;60221;45.696;16.076;2022-10-16T11:28:13;21.17;58.43
72288;SHT31;60221;45.696;16.076;2022-10-16T11:30:53;20.84;59.08
72288;SHT31;60221;45.696;16.076;2022-10-16T11:36:08;20.49;60.45
72288;SHT31;60221;45.696;16.076;2022-10-16T11:41:35;20.59;63.87
72288;SHT31;60221;45.696;16.076;2022-10-16T11:49:32;21.48;60.92
72288;SHT31;60221;45.696;16.076;2022-10-16T11:52:15;21.55;60.68
72288;SHT31;60221;45.696;16.076;2022-10-16T11:54:45;21.68;60.50
72288;SHT31;60221;45.696;16.076;2022-10-16T11:57:27;21.89;60.35
72288;SHT31;60221;45.696;16.076;2022-10-16T12:00:18;22.13;59.97
72288;SHT31;60221;45.696;16.076;2022-10-16T12:06:42;21.58;58.52
72288;SHT31;60221;45.696;16.076;2022-10-16T12:08:30;21.26;59.14
72288;SHT31;60221;45.696;16.076;2022-10-16T12:11:20;21.01;60.17
72288;SHT31;60221;45.696;16.076;2022-10-16T12:13:39;20.89;60.67
72288;SHT31;60221;45.696;16.076;2022-10-16T12:18:46;20.65;62.68
72288;SHT31;60221;45.696;16.076;2022-10-16T12:21:15;21.13;63.59
72288;SHT31;60221;45.696;16.076;2022-10-16T12:23:55;22.29;62.89
72288;SHT31;60221;45.696;16.076;2022-10-16T12:26:32;22.74;59.02
72288;SHT31;60221;45.696;16.076;2022-10-16T12:29:19;22.43;57.69
72288;SHT31;60221;45.696;16.076;2022-10-16T12:31:47;21.92;58.87
72288;SHT31;60221;45.696;16.076;2022-10-16T12:34:37;21.58;60.58
72288;SHT31;60221;45.696;16.076;2022-10-16T12:36:49;21.33;59.27
72288;SHT31;60221;45.696;16.076;2022-10-16T12:39:23;21.15;60.20
72288;SHT31;60221;45.696;16.076;2022-10-16T12:42:03;21.01;61.22
72288;SHT31;60221;45.696;16.076;2022-10-16T12:44:35;20.90;60.88
72288;SHT31;60221;45.696;16.076;2022-10-16T12:47:02;20.80;61.84
72288;SHT31;60221;45.696;16.076;2022-10-16T12:49:36;20.78;61.90
72288;SHT31;60221;45.696;16.076;2022-10-16T12:52:04;20.73;62.51
72288;SHT31;60221;45.696;16.076;2022-10-16T12:54:38;21.21;63.67
72288;SHT31;60221;45.696;16.076;2022-10-16T13:08:55;21.92;58.86
72288;SHT31;60221;45.696;16.076;2022-10-16T13:17:52;21.33;61.85
72288;SHT31;60221;45.696;16.076;2022-10-16T13:20:42;21.14;60.67
72288;SHT31;60221;45.696;16.076;2022-10-16T13:26:07;21.06;62.84
72288;SHT31;60221;45.696;16.076;2022-10-16T13:28:34;21.85;63.59
72288;SHT31;60221;45.696;16.076;2022-10-16T13:31:02;22.40;61.72
72288;SHT31;60221;45.696;16.076;2022-10-16T13:33:36;22.84;60.39
72288;SHT31;60221;45.696;16.076;2022-10-16T13:36:04;23.12;57.75
72288;SHT31;60221;45.696;16.076;2022-10-16T13:38:35;22.68;56.92
72288;SHT31;60221;45.696;16.076;2022-10-16T13:41:06;22.19;58.06
72288;SHT31;60221;45.696;16.076;2022-10-16T13:43:46;21.83;58.93
72288;SHT31;60221;45.696;16.076;2022-10-16T13:46:20;21.52;60.32
72288;SHT31;60221;45.696;16.076;2022-10-16T13:49:05;21.35;60.54
72288;SHT31;60221;45.696;16.076;2022-10-16T13:51:34;21.17;62.08
72288;SHT31;60221;45.696;16.076;2022-10-16T13:54:02;21.06;63.11
72288;SHT31;60221;45.696;16.076;2022-10-16T13:56:32;21.49;62.47
72288;SHT31;60221;45.696;16.076;2022-10-16T13:59:05;21.56;61.80
72288;SHT31;60221;45.696;16.076;2022-10-16T14:01:39;21.59;61.57
72288;SHT31;60221;45.696;16.076;2022-10-16T14:04:07;21.51;61.68
72288;SHT31;60221;45.696;16.076;2022-10-16T14:06:36;21.38;62.10
72288;SHT31;60221;45.696;16.076;2022-10-16T14:09:17;21.44;61.88
72288;SHT31;60221;45.696;16.076;2022-10-16T14:11:49;21.64;61.94
72288;SHT31;60221;45.696;16.076;2022-10-16T14:14:19;21.78;61.53
72288;SHT31;60221;45.696;16.076;2022-10-16T14:16:48;21.81;60.79
72288;SHT31;60221;45.696;16.076;2022-10-16T14:19:25;21.61;61.34
72288;SHT31;60221;45.696;16.076;2022-10-16T14:21:52;21.42;61.24
72288;SHT31;60221;45.696;16.076;2022-10-16T14:24:30;21.28;60.89
72288;SHT31;60221;45.696;16.076;2022-10-16T14:26:54;21.28;62.09
72288;SHT31;60221;45.696;16.076;2022-10-16T14:29:24;21.48;61.55
72288;SHT31;60221;45.696;16.076;2022-10-16T14:32:04;21.61;61.64
72288;SHT31;60221;45.696;16.076;2022-10-16T14:34:35;21.61;61.38
72288;SHT31;60221;45.696;16.076;2022-10-16T14:39:50;21.65;61.47
72288;SHT31;60221;45.696;16.076;2022-10-16T14:42:20;21.79;61.25
72288;SHT31;60221;45.696;16.076;2022-10-16T14:44:54;21.75;61.10
72288;SHT31;60221;45.696;16.076;2022-10-16T14:47:24;21.71;61.04
72288;SHT31;60221;45.696;16.076;2022-10-16T14:49:53;21.75;61.01
72288;SHT31;60221;45.696;16.076;2022-10-16T14:52:22;21.76;60.91
72288;SHT31;60221;45.696;16.076;2022-10-16T14:54:48;21.83;60.97
72288;SHT31;60221;45.696;16.076;2022-10-16T14:57:24;21.83;60.92
72288;SHT31;60221;45.696;16.076;2022-10-16T14:59:51;21.81;60.60
72288;SHT31;60221;45.696;16.076;2022-10-16T15:02:31;21.81;60.76
72288;SHT31;60221;45.696;16.076;2022-10-16T15:07:44;21.72;60.95
72288;SHT31;60221;45.696;16.076;2022-10-16T15:10:13;21.59;60.96
72288;SHT31;60221;45.696;16.076;2022-10-16T15:12:40;21.56;61.08
72288;SHT31;60221;45.696;16.076;2022-10-16T15:15:37;21.59;61.19
72288;SHT31;60221;45.696;16.076;2022-10-16T15:18:05;21.59;60.97
72288;SHT31;60221;45.696;16.076;2022-10-16T15:20:34;21.58;61.09
72288;SHT31;60221;45.696;16.076;2022-10-16T15:23:05;21.59;61.21
72288;SHT31;60221;45.696;16.076;2022-10-16T15:28:16;21.62;60.94
72288;SHT31;60221;45.696;16.076;2022-10-16T15:30:43;21.64;61.26
72288;SHT31;60221;45.696;16.076;2022-10-16T15:33:17;21.78;60.81
72288;SHT31;60221;45.696;16.076;2022-10-16T15:35:51;21.55;60.15
72288;SHT31;60221;45.696;16.076;2022-10-16T15:38:21;21.27;60.74
72288;SHT31;60221;45.696;16.076;2022-10-16T15:40:48;21.10;61.10
72288;SHT31;60221;45.696;16.076;2022-10-16T15:43:15;20.87;61.47
72288;SHT31;60221;45.696;16.076;2022-10-16T15:45:42;20.66;62.02
72288;SHT31;60221;45.696;16.076;2022-10-16T15:48:13;20.48;62.35
72288;SHT31;60221;45.696;16.076;2022-10-16T15:50:40;20.29;62.79
72288;SHT31;60221;45.696;16.076;2022-10-16T15:53:08;20.13;63.05
72288;SHT31;60221;45.696;16.076;2022-10-16T15:55:34;20.03;63.66
72288;SHT31;60221;45.696;16.076;2022-10-16T15:58:04;20.10;64.12
72288;SHT31;60221;45.696;16.076;2022-10-16T16:00:31;20.10;64.06
72288;SHT31;60221;45.696;16.076;2022-10-16T16:02:57;20.14;64.46
72288;SHT31;60221;45.696;16.076;2022-10-16T16:05:23;20.18;64.35
72288;SHT31;60221;45.696;16.076;2022-10-16T16:07:50;20.07;63.77
72288;SHT31;60221;45.696;16.076;2022-10-16T16:10:18;19.94;64.17
72288;SHT31;60221;45.696;16.076;2022-10-16T16:12:48;19.79;64.17
72288;SHT31;60221;45.696;16.076;2022-10-16T16:15:16;19.72;64.52
72288;SHT31;60221;45.696;16.076;2022-10-16T16:17:42;19.68;65.04
72288;SHT31;60221;45.696;16.076;2022-10-16T16:20:10;19.73;65.02
72288;SHT31;60221;45.696;16.076;2022-10-16T16:22:37;19.65;65.20
72288;SHT31;60221;45.696;16.076;2022-10-16T16:25:03;19.56;65.04
72288;SHT31;60221;45.696;16.076;2022-10-16T16:27:29;19.46;65.32
72288;SHT31;60221;45.696;16.076;2022-10-16T16:29:57;19.41;65.60
72288;SHT31;60221;45.696;16.076;2022-10-16T16:32:23;19.33;65.61
72288;SHT31;60221;45.696;16.076;2022-10-16T16:34:50;19.38;66.02
72288;SHT31;60221;45.696;16.076;2022-10-16T16:37:17;19.33;65.69
72288;SHT31;60221;45.696;16.076;2022-10-16T16:39:43;19.23;65.73
72288;SHT31;60221;45.696;16.076;2022-10-16T16:42:09;19.21;65.91
72288;SHT31;60221;45.696;16.076;2022-10-16T16:44:36;19.15;65.83
72288;SHT31;60221;45.696;16.076;2022-10-16T16:47:04;19.10;66.12
72288;SHT31;60221;45.696;16.076;2022-10-16T16:49:30;19.19;66.56
72288;SHT31;60221;45.696;16.076;2022-10-16T16:51:58;19.29;66.43
72288;SHT31;60221;45.696;16.076;2022-10-16T16:54:24;19.33;66.40
72288;SHT31;60221;45.696;16.076;2022-10-16T16:56:50;19.36;66.28
72288;SHT31;60221;45.696;16.076;2022-10-16T16:59:21;19.39;66.13
72288;SHT31;60221;45.696;16.076;2022-10-16T17:01:48;19.41;66.18
72288;SHT31;60221;45.696;16.076;2022-10-16T17:04:15;19.39;66.04
72288;SHT31;60221;45.696;16.076;2022-10-16T17:06:42;19.36;65.77
72288;SHT31;60221;45.696;16.076;2022-10-16T17:09:08;19.38;65.87
72288;SHT31;60221;45.696;16.076;2022-10-16T17:11:35;19.38;65.89